sensor_id;sensor_type;location;lat;lon;timestamp;pressure;altitude;pressure_sealevel;temperature;humidity
31062;BME280;17724;53.546;9.974;2024-03-02T00:00:53;100417.69;;;11.28;87.36
31062;BME280;17724;53.546;9.974;2024-03-02T00:04:54;100418.00;;;11.47;86.65
31062;BME280;17724;53.546;9.974;2024-03-02T00:08:58;100418.00;;;11.47;86.19
31062;BME280;17724;53.546;9.974;2024-03-02T00:13:00;100422.16;;;11.75;84.85
31062;BME280;17724;53.546;9.974;2024-03-02T00:17:01;100425.19;;;11.74;84.28
31062;BME280;17724;53.546;9.974;2024-03-02T00:21:01;100417.75;;;11.74;84.67
31062;BME280;17724;53.546;9.974;2024-03-02T00:25:03;100387.19;;;11.71;83.86
31062;BME280;17724;53.546;9.974;2024-03-02T00:29:04;100410.88;;;11.92;83.58
31062;BME280;17724;53.546;9.974;2024-03-02T00:33:07;100390.19;;;11.79;83.34
31062;BME280;17724;53.546;9.974;2024-03-02T00:37:09;100383.03;;;11.22;86.80
31062;BME280;17724;53.546;9.974;2024-03-02T00:41:36;100396.22;;;11.20;87.93
31062;BME280;17724;53.546;9.974;2024-03-02T00:45:39;100387.41;;;11.23;88.71
31062;BME280;17724;53.546;9.974;2024-03-02T00:49:40;100391.00;;;11.24;88.76
31062;BME280;17724;53.546;9.974;2024-03-02T00:53:41;100374.16;;;11.05;90.09
31062;BME280;17724;53.546;9.974;2024-03-02T00:57:41;100385.47;;;11.08;90.26
31062;BME280;17724;53.546;9.974;2024-03-02T01:01:44;100378.88;;;11.09;91.33
31062;BME280;17724;53.546;9.974;2024-03-02T01:05:45;100380.19;;;10.87;92.12
31062;BME280;17724;53.546;9.974;2024-03-02T01:09:45;100389.88;;;11.20;92.07
31062;BME280;17724;53.546;9.974;2024-03-02T01:13:46;100379.16;;;11.28;91.40
31062;BME280;17724;53.546;9.974;2024-03-02T01:17:46;100401.75;;;11.30;92.08
31062;BME280;17724;53.546;9.974;2024-03-02T01:21:47;100400.56;;;10.96;94.62
31062;BME280;17724;53.546;9.974;2024-03-02T01:25:48;100402.53;;;11.10;94.73
31062;BME280;17724;53.546;9.974;2024-03-02T01:29:48;100400.72;;;10.64;97.76
31062;BME280;17724;53.546;9.974;2024-03-02T01:33:49;100389.88;;;10.36;99.46
31062;BME280;17724;53.546;9.974;2024-03-02T01:37:49;100392.00;;;10.87;97.99
31062;BME280;17724;53.546;9.974;2024-03-02T01:41:49;100389.97;;;10.57;98.16
31062;BME280;17724;53.546;9.974;2024-03-02T01:45:50;100386.91;;;10.48;99.97
31062;BME280;17724;53.546;9.974;2024-03-02T01:49:51;100382.34;;;10.74;98.89
31062;BME280;17724;53.546;9.974;2024-03-02T01:53:51;100380.72;;;10.78;97.98
31062;BME280;17724;53.546;9.974;2024-03-02T01:57:52;100368.81;;;10.57;98.63
31062;BME280;17724;53.546;9.974;2024-03-02T02:01:53;100378.78;;;10.74;98.96
31062;BME280;17724;53.546;9.974;2024-03-02T02:05:53;100378.19;;;10.62;99.26
31062;BME280;17724;53.546;9.974;2024-03-02T02:09:54;100375.94;;;10.06;100.00
31062;BME280;17724;53.546;9.974;2024-03-02T02:13:54;100353.00;;;10.32;100.00
31062;BME280;17724;53.546;9.974;2024-03-02T02:17:57;100364.97;;;10.69;100.00
31062;BME280;17724;53.546;9.974;2024-03-02T02:21:57;100363.69;;;10.81;99.88
31062;BME280;17724;53.546;9.974;2024-03-02T02:25:58;100353.69;;;10.65;99.55
31062;BME280;17724;53.546;9.974;2024-03-02T02:29:59;100355.91;;;10.58;98.93
31062;BME280;17724;53.546;9.974;2024-03-02T02:34:01;100354.22;;;10.57;98.82
31062;BME280;17724;53.546;9.974;2024-03-02T02:38:02;100349.00;;;10.60;97.84
31062;BME280;17724;53.546;9.974;2024-03-02T02:42:03;100337.63;;;10.36;100.00
31062;BME280;17724;53.546;9.974;2024-03-02T02:46:04;100338.63;;;10.15;100.00
31062;BME280;17724;53.546;9.974;2024-03-02T02:50:07;100322.69;;;10.17;100.00
31062;BME280;17724;53.546;9.974;2024-03-02T02:54:07;100342.06;;;10.43;100.00
31062;BME280;17724;53.546;9.974;2024-03-02T02:58:08;100344.47;;;10.29;100.00
31062;BME280;17724;53.546;9.974;2024-03-02T03:02:08;100341.19;;;10.32;100.00
31062;BME280;17724;53.546;9.974;2024-03-02T03:06:09;100345.19;;;10.67;100.00
31062;BME280;17724;53.546;9.974;2024-03-02T03:10:10;100343.25;;;10.67;99.20
31062;BME280;17724;53.546;9.974;2024-03-02T03:14:11;100343.22;;;10.57;99.51
31062;BME280;17724;53.546;9.974;2024-03-02T03:18:11;100345.13;;;10.51;99.48
31062;BME280;17724;53.546;9.974;2024-03-02T03:22:12;100338.56;;;10.63;99.24
31062;BME280;17724;53.546;9.974;2024-03-02T03:26:13;100339.84;;;10.34;100.00
31062;BME280;17724;53.546;9.974;2024-03-02T03:30:14;100331.34;;;10.41;99.98
31062;BME280;17724;53.546;9.974;2024-03-02T03:34:14;100340.28;;;10.74;98.75
31062;BME280;17724;53.546;9.974;2024-03-02T03:38:16;100343.88;;;10.90;97.59
31062;BME280;17724;53.546;9.974;2024-03-02T03:42:16;100345.25;;;10.82;96.42
31062;BME280;17724;53.546;9.974;2024-03-02T03:46:17;100336.19;;;10.97;96.32
31062;BME280;17724;53.546;9.974;2024-03-02T03:50:17;100338.34;;;10.79;95.91
31062;BME280;17724;53.546;9.974;2024-03-02T03:54:18;100329.50;;;10.62;95.93
31062;BME280;17724;53.546;9.974;2024-03-02T03:58:18;100332.97;;;10.37;97.40
31062;BME280;17724;53.546;9.974;2024-03-02T04:02:20;100332.13;;;10.31;98.69
31062;BME280;17724;53.546;9.974;2024-03-02T04:06:21;100336.59;;;10.53;97.76
31062;BME280;17724;53.546;9.974;2024-03-02T04:10:21;100333.94;;;10.73;96.46
31062;BME280;17724;53.546;9.974;2024-03-02T04:14:22;100328.03;;;10.39;97.51
31062;BME280;17724;53.546;9.974;2024-03-02T04:18:23;100330.78;;;10.39;97.30
31062;BME280;17724;53.546;9.974;2024-03-02T04:22:24;100331.50;;;10.24;98.00
31062;BME280;17724;53.546;9.974;2024-03-02T04:26:25;100329.50;;;10.67;96.73
31062;BME280;17724;53.546;9.974;2024-03-02T04:30:25;100323.97;;;10.52;96.32
31062;BME280;17724;53.546;9.974;2024-03-02T04:34:27;100339.13;;;10.65;95.56
31062;BME280;17724;53.546;9.974;2024-03-02T04:38:27;100346.78;;;10.52;95.68
31062;BME280;17724;53.546;9.974;2024-03-02T04:42:29;100350.47;;;10.78;94.78
31062;BME280;17724;53.546;9.974;2024-03-02T04:46:29;100357.06;;;10.77;93.96
31062;BME280;17724;53.546;9.974;2024-03-02T04:50:30;100341.38;;;10.15;96.39
31062;BME280;17724;53.546;9.974;2024-03-02T04:54:30;100355.09;;;10.10;97.94
31062;BME280;17724;53.546;9.974;2024-03-02T04:58:30;100346.03;;;10.15;98.09
31062;BME280;17724;53.546;9.974;2024-03-02T05:02:31;100339.59;;;9.94;98.76
31062;BME280;17724;53.546;9.974;2024-03-02T05:06:31;100335.69;;;9.84;99.31
31062;BME280;17724;53.546;9.974;2024-03-02T05:10:32;100333.03;;;10.00;98.68
31062;BME280;17724;53.546;9.974;2024-03-02T05:14:32;100331.19;;;9.68;99.42
31062;BME280;17724;53.546;9.974;2024-03-02T05:18:33;100335.38;;;9.81;100.00
31062;BME280;17724;53.546;9.974;2024-03-02T05:22:34;100334.38;;;9.97;98.68
31062;BME280;17724;53.546;9.974;2024-03-02T05:26:34;100336.50;;;9.85;99.34
31062;BME280;17724;53.546;9.974;2024-03-02T05:30:35;100311.25;;;9.83;98.43
31062;BME280;17724;53.546;9.974;2024-03-02T05:34:36;100335.97;;;9.88;98.14
31062;BME280;17724;53.546;9.974;2024-03-02T05:38:36;100342.41;;;10.04;97.82
31062;BME280;17724;53.546;9.974;2024-03-02T05:42:37;100338.44;;;10.27;97.11
31062;BME280;17724;53.546;9.974;2024-03-02T05:46:38;100340.25;;;10.16;97.03
31062;BME280;17724;53.546;9.974;2024-03-02T05:50:39;100322.56;;;9.92;97.87
31062;BME280;17724;53.546;9.974;2024-03-02T05:54:39;100334.66;;;9.96;98.77
31062;BME280;17724;53.546;9.974;2024-03-02T05:58:40;100327.72;;;9.83;97.88
31062;BME280;17724;53.546;9.974;2024-03-02T06:02:53;100348.84;;;10.25;97.33
31062;BME280;17724;53.546;9.974;2024-03-02T06:06:53;100351.22;;;10.06;96.45
31062;BME280;17724;53.546;9.974;2024-03-02T06:10:56;100347.28;;;9.92;97.79
31062;BME280;17724;53.546;9.974;2024-03-02T06:14:57;100347.88;;;9.99;97.71
31062;BME280;17724;53.546;9.974;2024-03-02T06:18:58;100342.84;;;9.85;97.89
31062;BME280;17724;53.546;9.974;2024-03-02T06:22:58;100352.34;;;10.10;96.98
31062;BME280;17724;53.546;9.974;2024-03-02T06:26:59;100345.53;;;9.80;97.78
31062;BME280;17724;53.546;9.974;2024-03-02T06:30:59;100327.00;;;9.60;98.22
31062;BME280;17724;53.546;9.974;2024-03-02T06:35:00;100344.25;;;9.51;100.00
31062;BME280;17724;53.546;9.974;2024-03-02T06:39:00;100337.16;;;9.60;99.75
31062;BME280;17724;53.546;9.974;2024-03-02T06:43:01;100338.28;;;9.27;100.00
31062;BME280;17724;53.546;9.974;2024-03-02T06:47:01;100343.41;;;9.18;100.00
31062;BME280;17724;53.546;9.974;2024-03-02T06:51:02;100352.72;;;9.49;100.00
31062;BME280;17724;53.546;9.974;2024-03-02T06:55:03;100355.13;;;9.41;100.00
31062;BME280;17724;53.546;9.974;2024-03-02T06:59:04;100314.94;;;9.29;100.00
31062;BME280;17724;53.546;9.974;2024-03-02T07:03:04;100338.00;;;9.28;100.00
31062;BME280;17724;53.546;9.974;2024-03-02T07:07:05;100373.38;;;9.57;100.00
31062;BME280;17724;53.546;9.974;2024-03-02T07:11:05;100385.75;;;9.59;99.32
31062;BME280;17724;53.546;9.974;2024-03-02T07:15:06;100380.34;;;10.07;98.35
31062;BME280;17724;53.546;9.974;2024-03-02T07:19:07;100390.75;;;10.05;97.16
31062;BME280;17724;53.546;9.974;2024-03-02T07:23:07;100385.81;;;10.02;96.62
31062;BME280;17724;53.546;9.974;2024-03-02T07:27:12;100393.84;;;9.76;97.90
31062;BME280;17724;53.546;9.974;2024-03-02T07:31:13;100396.19;;;9.95;96.74
31062;BME280;17724;53.546;9.974;2024-03-02T07:35:14;100385.19;;;9.57;98.00
31062;BME280;17724;53.546;9.974;2024-03-02T07:39:15;100403.34;;;10.01;97.55
31062;BME280;17724;53.546;9.974;2024-03-02T07:43:17;100410.06;;;10.15;95.68
31062;BME280;17724;53.546;9.974;2024-03-02T07:47:18;100393.78;;;10.08;95.28
31062;BME280;17724;53.546;9.974;2024-03-02T07:51:18;100415.97;;;10.34;94.44
31062;BME280;17724;53.546;9.974;2024-03-02T07:55:19;100416.22;;;10.27;94.72
31062;BME280;17724;53.546;9.974;2024-03-02T07:59:19;100429.16;;;9.95;95.95
31062;BME280;17724;53.546;9.974;2024-03-02T08:03:22;100423.16;;;10.03;95.42
31062;BME280;17724;53.546;9.974;2024-03-02T08:07:22;100435.06;;;10.14;95.61
31062;BME280;17724;53.546;9.974;2024-03-02T08:11:23;100439.13;;;10.06;95.24
31062;BME280;17724;53.546;9.974;2024-03-02T08:15:24;100432.91;;;9.83;97.07
31062;BME280;17724;53.546;9.974;2024-03-02T08:19:24;100437.22;;;10.11;96.29
31062;BME280;17724;53.546;9.974;2024-03-02T08:23:25;100442.19;;;10.09;95.52
31062;BME280;17724;53.546;9.974;2024-03-02T08:27:25;100427.91;;;9.75;97.77
31062;BME280;17724;53.546;9.974;2024-03-02T08:31:26;100442.19;;;10.09;95.63
31062;BME280;17724;53.546;9.974;2024-03-02T08:35:27;100448.50;;;10.10;95.11
31062;BME280;17724;53.546;9.974;2024-03-02T08:39:28;100455.31;;;10.40;94.88
31062;BME280;17724;53.546;9.974;2024-03-02T08:43:29;100446.16;;;10.76;93.09
31062;BME280;17724;53.546;9.974;2024-03-02T08:47:30;100448.34;;;10.74;92.44
31062;BME280;17724;53.546;9.974;2024-03-02T08:51:30;100448.38;;;10.79;90.96
31062;BME280;17724;53.546;9.974;2024-03-02T08:55:31;100451.59;;;11.44;90.27
31062;BME280;17724;53.546;9.974;2024-03-02T08:59:31;100455.25;;;11.96;86.21
31062;BME280;17724;53.546;9.974;2024-03-02T09:03:32;100468.38;;;12.70;82.50
31062;BME280;17724;53.546;9.974;2024-03-02T09:07:33;100463.22;;;12.23;83.39
31062;BME280;17724;53.546;9.974;2024-03-02T09:11:34;100437.03;;;12.30;80.49
31062;BME280;17724;53.546;9.974;2024-03-02T09:15:34;100462.69;;;12.00;80.35
31062;BME280;17724;53.546;9.974;2024-03-02T09:19:37;100450.28;;;11.93;82.18
31062;BME280;17724;53.546;9.974;2024-03-02T09:23:38;100461.84;;;11.84;83.49
31062;BME280;17724;53.546;9.974;2024-03-02T09:27:40;100463.97;;;11.37;85.87
31062;BME280;17724;53.546;9.974;2024-03-02T09:31:41;100474.81;;;12.04;84.01
31062;BME280;17724;53.546;9.974;2024-03-02T09:35:42;100470.41;;;12.03;82.90
31062;BME280;17724;53.546;9.974;2024-03-02T09:39:43;100454.16;;;11.87;83.55
31062;BME280;17724;53.546;9.974;2024-03-02T09:43:44;100459.59;;;12.58;82.17
31062;BME280;17724;53.546;9.974;2024-03-02T09:47:45;100475.31;;;12.52;80.61
31062;BME280;17724;53.546;9.974;2024-03-02T09:51:47;100470.66;;;12.27;81.59
31062;BME280;17724;53.546;9.974;2024-03-02T09:55:49;100464.56;;;12.51;80.36
31062;BME280;17724;53.546;9.974;2024-03-02T09:59:49;100475.28;;;12.68;79.27
31062;BME280;17724;53.546;9.974;2024-03-02T10:03:50;100472.00;;;12.50;79.29
31062;BME280;17724;53.546;9.974;2024-03-02T10:08:03;100468.63;;;12.74;78.75
31062;BME280;17724;53.546;9.974;2024-03-02T10:12:05;100473.22;;;12.99;75.76
31062;BME280;17724;53.546;9.974;2024-03-02T10:16:12;100466.09;;;12.93;76.02
31062;BME280;17724;53.546;9.974;2024-03-02T10:20:26;100458.34;;;12.95;76.11
31062;BME280;17724;53.546;9.974;2024-03-02T10:24:44;100444.00;;;12.93;75.88
31062;BME280;17724;53.546;9.974;2024-03-02T10:28:48;100460.66;;;13.32;73.78
31062;BME280;17724;53.546;9.974;2024-03-02T10:32:49;100451.22;;;13.43;74.29
31062;BME280;17724;53.546;9.974;2024-03-02T10:36:50;100447.13;;;13.36;72.70
31062;BME280;17724;53.546;9.974;2024-03-02T10:40:51;100464.88;;;13.64;72.65
31062;BME280;17724;53.546;9.974;2024-03-02T10:44:53;100480.59;;;13.24;72.99
31062;BME280;17724;53.546;9.974;2024-03-02T10:48:54;100473.28;;;13.48;72.90
31062;BME280;17724;53.546;9.974;2024-03-02T10:52:55;100477.00;;;13.23;71.21
31062;BME280;17724;53.546;9.974;2024-03-02T10:56:58;100449.09;;;13.20;71.03
31062;BME280;17724;53.546;9.974;2024-03-02T11:01:03;100478.81;;;13.88;69.65
31062;BME280;17724;53.546;9.974;2024-03-02T11:05:06;100484.94;;;13.85;69.13
31062;BME280;17724;53.546;9.974;2024-03-02T11:09:09;100479.47;;;13.74;68.96
31062;BME280;17724;53.546;9.974;2024-03-02T11:13:11;100470.19;;;13.55;68.15
31062;BME280;17724;53.546;9.974;2024-03-02T11:17:14;100480.69;;;13.92;66.87
31062;BME280;17724;53.546;9.974;2024-03-02T11:21:18;100481.13;;;14.10;67.43
31062;BME280;17724;53.546;9.974;2024-03-02T11:25:24;100482.09;;;14.24;65.22
31062;BME280;17724;53.546;9.974;2024-03-02T11:33:35;100498.47;;;14.78;66.21
31062;BME280;17724;53.546;9.974;2024-03-02T11:37:36;100493.13;;;14.29;64.32
31062;BME280;17724;53.546;9.974;2024-03-02T11:41:36;100492.78;;;14.07;66.01
31062;BME280;17724;53.546;9.974;2024-03-02T11:45:37;100483.31;;;14.13;65.26
31062;BME280;17724;53.546;9.974;2024-03-02T11:49:44;100488.25;;;14.16;64.79
31062;BME280;17724;53.546;9.974;2024-03-02T11:53:46;100483.41;;;14.32;64.08
31062;BME280;17724;53.546;9.974;2024-03-02T11:57:48;100479.06;;;14.25;63.94
31062;BME280;17724;53.546;9.974;2024-03-02T12:01:50;100488.13;;;14.31;64.88
31062;BME280;17724;53.546;9.974;2024-03-02T12:05:52;100470.25;;;13.89;64.55
31062;BME280;17724;53.546;9.974;2024-03-02T12:10:00;100492.00;;;14.01;64.21
31062;BME280;17724;53.546;9.974;2024-03-02T12:14:01;100462.03;;;13.79;64.23
31062;BME280;17724;53.546;9.974;2024-03-02T12:18:03;100479.81;;;14.02;63.50
31062;BME280;17724;53.546;9.974;2024-03-02T12:22:05;100480.97;;;13.96;63.12
31062;BME280;17724;53.546;9.974;2024-03-02T12:26:06;100468.06;;;14.20;62.49
31062;BME280;17724;53.546;9.974;2024-03-02T12:30:07;100468.13;;;14.10;62.28
31062;BME280;17724;53.546;9.974;2024-03-02T12:34:16;100458.13;;;14.14;62.02
31062;BME280;17724;53.546;9.974;2024-03-02T12:38:17;100462.53;;;14.49;61.42
31062;BME280;17724;53.546;9.974;2024-03-02T12:42:18;100469.56;;;14.37;61.13
31062;BME280;17724;53.546;9.974;2024-03-02T12:46:18;100468.13;;;14.10;60.45
31062;BME280;17724;53.546;9.974;2024-03-02T12:50:20;100466.72;;;14.42;60.89
31062;BME280;17724;53.546;9.974;2024-03-02T12:54:22;100449.41;;;14.60;61.94
31062;BME280;17724;53.546;9.974;2024-03-02T12:58:22;100454.16;;;14.54;59.53
31062;BME280;17724;53.546;9.974;2024-03-02T13:02:30;100467.94;;;14.60;59.73
31062;BME280;17724;53.546;9.974;2024-03-02T13:06:33;100459.31;;;14.37;59.57
31062;BME280;17724;53.546;9.974;2024-03-02T13:10:40;100457.75;;;14.26;60.50
31062;BME280;17724;53.546;9.974;2024-03-02T13:14:41;100461.25;;;14.66;59.83
31062;BME280;17724;53.546;9.974;2024-03-02T13:18:42;100439.84;;;14.18;60.06
31062;BME280;17724;53.546;9.974;2024-03-02T13:22:44;100460.78;;;14.83;59.75
31062;BME280;17724;53.546;9.974;2024-03-02T13:26:48;100444.75;;;14.56;59.81
31062;BME280;17724;53.546;9.974;2024-03-02T13:30:48;100443.88;;;14.60;59.93
31062;BME280;17724;53.546;9.974;2024-03-02T13:34:49;100452.31;;;14.45;59.86
31062;BME280;17724;53.546;9.974;2024-03-02T13:38:51;100437.66;;;14.44;59.69
31062;BME280;17724;53.546;9.974;2024-03-02T13:42:52;100455.47;;;14.62;59.32
31062;BME280;17724;53.546;9.974;2024-03-02T13:46:54;100451.06;;;14.61;60.13
31062;BME280;17724;53.546;9.974;2024-03-02T13:50:56;100447.72;;;14.64;60.41
31062;BME280;17724;53.546;9.974;2024-03-02T13:55:00;100441.59;;;14.38;61.09
31062;BME280;17724;53.546;9.974;2024-03-02T13:59:00;100448.00;;;14.63;61.35
31062;BME280;17724;53.546;9.974;2024-03-02T14:03:02;100451.56;;;14.87;60.40
31062;BME280;17724;53.546;9.974;2024-03-02T14:07:07;100441.94;;;15.03;59.73
31062;BME280;17724;53.546;9.974;2024-03-02T14:11:08;100450.81;;;14.82;59.80
31062;BME280;17724;53.546;9.974;2024-03-02T14:15:12;100426.03;;;14.71;59.89
31062;BME280;17724;53.546;9.974;2024-03-02T14:19:19;100434.28;;;14.76;61.32
31062;BME280;17724;53.546;9.974;2024-03-02T14:23:22;100399.22;;;14.67;60.72
31062;BME280;17724;53.546;9.974;2024-03-02T14:27:23;100429.66;;;14.91;61.71
31062;BME280;17724;53.546;9.974;2024-03-02T14:31:30;100425.72;;;14.97;60.71
31062;BME280;17724;53.546;9.974;2024-03-02T14:35:32;100429.81;;;14.81;61.61
31062;BME280;17724;53.546;9.974;2024-03-02T14:39:33;100425.38;;;14.79;60.62
31062;BME280;17724;53.546;9.974;2024-03-02T14:43:39;100417.28;;;14.64;62.19
31062;BME280;17724;53.546;9.974;2024-03-02T14:47:40;100418.66;;;14.86;61.52
31062;BME280;17724;53.546;9.974;2024-03-02T14:51:41;100423.16;;;14.58;61.62
31062;BME280;17724;53.546;9.974;2024-03-02T14:55:42;100427.69;;;14.43;61.89
31062;BME280;17724;53.546;9.974;2024-03-02T14:59:42;100427.22;;;14.36;60.78
31062;BME280;17724;53.546;9.974;2024-03-02T15:03:43;100413.91;;;14.38;60.50
31062;BME280;17724;53.546;9.974;2024-03-02T15:07:44;100429.34;;;14.49;59.95
31062;BME280;17724;53.546;9.974;2024-03-02T15:11:44;100422.84;;;14.30;61.23
31062;BME280;17724;53.546;9.974;2024-03-02T15:15:45;100429.69;;;14.38;61.42
31062;BME280;17724;53.546;9.974;2024-03-02T15:19:46;100423.28;;;14.42;61.09
31062;BME280;17724;53.546;9.974;2024-03-02T15:23:47;100428.34;;;14.35;61.90
31062;BME280;17724;53.546;9.974;2024-03-02T15:27:47;100427.72;;;14.67;61.13
31062;BME280;17724;53.546;9.974;2024-03-02T15:31:48;100431.28;;;14.73;62.32
31062;BME280;17724;53.546;9.974;2024-03-02T15:35:48;100432.03;;;14.25;64.68
31062;BME280;17724;53.546;9.974;2024-03-02T15:39:49;100424.88;;;14.24;65.77
31062;BME280;17724;53.546;9.974;2024-03-02T15:43:50;100421.22;;;14.29;65.38
31062;BME280;17724;53.546;9.974;2024-03-02T15:47:50;100433.94;;;14.30;65.73
31062;BME280;17724;53.546;9.974;2024-03-02T15:51:51;100415.41;;;14.01;66.66
31062;BME280;17724;53.546;9.974;2024-03-02T15:55:51;100424.59;;;13.92;67.18
31062;BME280;17724;53.546;9.974;2024-03-02T15:59:53;100412.84;;;13.76;67.71
31062;BME280;17724;53.546;9.974;2024-03-02T16:03:53;100426.06;;;14.13;66.79
31062;BME280;17724;53.546;9.974;2024-03-02T16:07:54;100427.09;;;13.88;67.63
31062;BME280;17724;53.546;9.974;2024-03-02T16:11:55;100426.44;;;13.72;68.52
31062;BME280;17724;53.546;9.974;2024-03-02T16:15:55;100430.47;;;13.85;67.77
31062;BME280;17724;53.546;9.974;2024-03-02T16:19:56;100430.03;;;13.73;68.42
31062;BME280;17724;53.546;9.974;2024-03-02T16:23:58;100420.00;;;13.82;67.64
31062;BME280;17724;53.546;9.974;2024-03-02T16:27:59;100437.94;;;13.85;67.72
31062;BME280;17724;53.546;9.974;2024-03-02T16:32:02;100440.28;;;13.67;68.67
31062;BME280;17724;53.546;9.974;2024-03-02T16:36:04;100438.28;;;13.78;67.82
31062;BME280;17724;53.546;9.974;2024-03-02T16:40:05;100439.13;;;13.73;67.54
31062;BME280;17724;53.546;9.974;2024-03-02T16:44:07;100446.88;;;13.71;67.37
31062;BME280;17724;53.546;9.974;2024-03-02T16:48:07;100444.63;;;13.78;67.24
31062;BME280;17724;53.546;9.974;2024-03-02T16:52:08;100446.56;;;13.78;67.42
31062;BME280;17724;53.546;9.974;2024-03-02T16:56:08;100436.38;;;13.73;67.10
31062;BME280;17724;53.546;9.974;2024-03-02T17:00:09;100455.56;;;13.54;68.01
31062;BME280;17724;53.546;9.974;2024-03-02T17:04:13;100455.66;;;13.39;68.90
31062;BME280;17724;53.546;9.974;2024-03-02T17:08:14;100461.38;;;13.53;68.70
31062;BME280;17724;53.546;9.974;2024-03-02T17:12:14;100470.56;;;13.43;69.08
31062;BME280;17724;53.546;9.974;2024-03-02T17:16:15;100481.38;;;13.35;68.86
31062;BME280;17724;53.546;9.974;2024-03-02T17:20:15;100471.09;;;13.45;68.47
31062;BME280;17724;53.546;9.974;2024-03-02T17:24:16;100479.69;;;13.39;68.38
31062;BME280;17724;53.546;9.974;2024-03-02T17:28:23;100491.03;;;13.37;68.59
31062;BME280;17724;53.546;9.974;2024-03-02T17:32:25;100474.72;;;13.41;67.87
31062;BME280;17724;53.546;9.974;2024-03-02T17:36:26;100470.63;;;13.28;67.47
31062;BME280;17724;53.546;9.974;2024-03-02T17:40:26;100492.50;;;13.14;68.13
31062;BME280;17724;53.546;9.974;2024-03-02T17:44:27;100483.09;;;13.25;67.83
31062;BME280;17724;53.546;9.974;2024-03-02T17:48:27;100484.75;;;13.21;67.44
31062;BME280;17724;53.546;9.974;2024-03-02T17:52:28;100486.38;;;13.22;67.29
31062;BME280;17724;53.546;9.974;2024-03-02T17:56:29;100493.25;;;13.35;66.49
31062;BME280;17724;53.546;9.974;2024-03-02T18:00:30;100498.78;;;13.35;66.57
31062;BME280;17724;53.546;9.974;2024-03-02T18:04:31;100496.56;;;13.32;66.71
31062;BME280;17724;53.546;9.974;2024-03-02T18:08:31;100497.13;;;13.34;67.37
31062;BME280;17724;53.546;9.974;2024-03-02T18:12:32;100489.19;;;13.12;67.89
31062;BME280;17724;53.546;9.974;2024-03-02T18:16:33;100493.34;;;13.04;68.82
31062;BME280;17724;53.546;9.974;2024-03-02T18:20:33;100499.66;;;13.15;69.07
31062;BME280;17724;53.546;9.974;2024-03-02T18:24:34;100486.47;;;13.02;70.19
31062;BME280;17724;53.546;9.974;2024-03-02T18:28:35;100498.38;;;12.97;71.00
31062;BME280;17724;53.546;9.974;2024-03-02T18:32:39;100492.59;;;12.94;71.15
31062;BME280;17724;53.546;9.974;2024-03-02T18:36:39;100497.00;;;12.90;72.32
31062;BME280;17724;53.546;9.974;2024-03-02T18:40:40;100498.41;;;12.87;73.01
31062;BME280;17724;53.546;9.974;2024-03-02T18:44:42;100495.94;;;12.75;73.49
31062;BME280;17724;53.546;9.974;2024-03-02T18:48:42;100506.13;;;12.80;74.56
31062;BME280;17724;53.546;9.974;2024-03-02T18:52:44;100498.16;;;12.78;74.22
31062;BME280;17724;53.546;9.974;2024-03-02T18:56:44;100507.00;;;12.70;74.62
31062;BME280;17724;53.546;9.974;2024-03-02T19:00:45;100507.56;;;12.67;75.30
31062;BME280;17724;53.546;9.974;2024-03-02T19:04:46;100514.47;;;12.60;75.83
31062;BME280;17724;53.546;9.974;2024-03-02T19:08:47;100508.97;;;12.65;75.96
31062;BME280;17724;53.546;9.974;2024-03-02T19:12:48;100510.88;;;12.64;76.70
31062;BME280;17724;53.546;9.974;2024-03-02T19:16:49;100512.00;;;12.58;76.96
31062;BME280;17724;53.546;9.974;2024-03-02T19:20:50;100518.59;;;12.52;78.09
31062;BME280;17724;53.546;9.974;2024-03-02T19:24:51;100520.84;;;12.50;78.54
31062;BME280;17724;53.546;9.974;2024-03-02T19:28:52;100520.28;;;12.48;78.78
31062;BME280;17724;53.546;9.974;2024-03-02T19:32:52;100516.44;;;12.39;80.00
31062;BME280;17724;53.546;9.974;2024-03-02T19:36:53;100510.38;;;12.21;81.20
31062;BME280;17724;53.546;9.974;2024-03-02T19:40:55;100512.81;;;12.48;80.22
31062;BME280;17724;53.546;9.974;2024-03-02T19:44:56;100513.41;;;12.25;82.05
31062;BME280;17724;53.546;9.974;2024-03-02T19:48:57;100517.53;;;12.32;82.14
31062;BME280;17724;53.546;9.974;2024-03-02T19:52:57;100512.56;;;12.24;82.62
31062;BME280;17724;53.546;9.974;2024-03-02T19:56:58;100519.47;;;12.27;83.31
31062;BME280;17724;53.546;9.974;2024-03-02T20:00:59;100513.13;;;11.96;83.93
31062;BME280;17724;53.546;9.974;2024-03-02T20:05:00;100513.13;;;11.96;85.29
31062;BME280;17724;53.546;9.974;2024-03-02T20:09:01;100523.31;;;11.95;85.55
31062;BME280;17724;53.546;9.974;2024-03-02T20:13:02;100523.03;;;11.92;85.62
31062;BME280;17724;53.546;9.974;2024-03-02T20:17:05;100518.34;;;11.92;85.73
31062;BME280;17724;53.546;9.974;2024-03-02T20:21:05;100516.41;;;11.77;86.55
31062;BME280;17724;53.546;9.974;2024-03-02T20:25:06;100529.06;;;11.78;86.78
31062;BME280;17724;53.546;9.974;2024-03-02T20:29:07;100526.84;;;11.65;87.93
31062;BME280;17724;53.546;9.974;2024-03-02T20:33:07;100522.97;;;11.61;88.58
31062;BME280;17724;53.546;9.974;2024-03-02T20:37:11;100515.78;;;11.50;88.99
31062;BME280;17724;53.546;9.974;2024-03-02T20:41:15;100524.88;;;11.55;89.01
31062;BME280;17724;53.546;9.974;2024-03-02T20:45:17;100517.16;;;11.52;88.98
31062;BME280;17724;53.546;9.974;2024-03-02T20:49:18;100516.84;;;11.49;89.12
31062;BME280;17724;53.546;9.974;2024-03-02T20:53:20;100516.84;;;11.49;89.81
31062;BME280;17724;53.546;9.974;2024-03-02T20:57:20;100520.72;;;11.38;90.93
31062;BME280;17724;53.546;9.974;2024-03-02T21:01:21;100510.81;;;11.42;91.30
31062;BME280;17724;53.546;9.974;2024-03-02T21:05:21;100521.19;;;11.24;92.36